Time;durP1;ratioP1;P1;durP2;ratioP2;P2;SDS_P1;SDS_P2;PMS_P1;PMS_P2;Temp;Humidity;BMP_temperature;BMP_pressure;BME280_temperature;BME280_humidity;BME280_pressure;Samples;Min_cycle;Max_cycle;Signal;HPM_P1;HPM_P2
2022/04/15 00:01:09;;;;;;;;;9.00;8.67;;;;;;;;5103115;27;51172;-52
2022/04/15 00:03:34;;;;;;;;;11.00;10.00;;;;;;;;5111631;27;51161;-51
2022/04/15 00:06:00;;;;;;;;;9.00;9.00;;;;;;;;5107864;27;51801;-50
2022/04/15 00:08:25;;;;;;;;;12.33;12.00;;;;;;;;5109329;27;51365;-49
2022/04/15 00:10:50;;;;;;;;;9.00;9.00;;;;;;;;5101290;27;51178;-52
2022/04/15 00:13:19;;;;;;;;;7.33;6.67;;;;;;;;5118693;27;51298;-51
2022/04/15 00:15:45;;;;;;;;;8.00;8.00;;;;;;;;5100596;27;51228;-53
2022/04/15 00:18:10;;;;;;;;;8.33;7.67;;;;;;;;5099253;27;51170;-53
2022/04/15 00:20:35;;;;;;;;;10.67;9.67;;;;;;;;5099308;27;51865;-52
2022/04/15 00:23:01;;;;;;;;;7.33;7.33;;;;;;;;5107834;27;51284;-52
2022/04/15 00:25:26;;;;;;;;;6.00;6.00;;;;;;;;5103348;27;51155;-52
2022/04/15 00:27:51;;;;;;;;;7.00;7.00;;;;;;;;5096019;27;52616;-52
2022/04/15 00:30:17;;;;;;;;;7.00;7.00;;;;;;;;5100120;27;51125;-53
2022/04/15 00:32:42;;;;;;;;;8.33;8.33;;;;;;;;5111673;27;51437;-52
2022/04/15 00:35:08;;;;;;;;;9.67;9.00;;;;;;;;5105700;27;51806;-54
2022/04/15 00:37:33;;;;;;;;;10.33;9.33;;;;;;;;5105500;27;53101;-53
2022/04/15 00:40:01;;;;;;;;;11.00;10.00;;;;;;;;5101597;27;51097;-54
2022/04/15 00:42:26;;;;;;;;;10.00;9.33;;;;;;;;5107036;27;52033;-52
2022/04/15 00:44:58;;;;;;;;;10.00;9.67;;;;;;;;5088098;27;51371;-53
2022/04/15 00:47:36;;;;;;;;;10.67;10.67;;;;;;;;5107255;27;52075;-53
2022/04/15 00:50:02;;;;;;;;;12.33;11.00;;;;;;;;5105005;27;51331;-52
2022/04/15 00:52:30;;;;;;;;;13.67;13.00;;;;;;;;5107478;27;51057;-52
2022/04/15 00:54:57;;;;;;;;;13.00;13.00;;;;;;;;5105940;27;51255;-52
2022/04/15 00:57:23;;;;;;;;;14.50;13.25;;;;;;;;5105888;27;51964;-50
2022/04/15 00:59:49;;;;;;;;;12.00;11.00;;;;;;;;5105055;27;52049;-52
2022/04/15 01:02:17;;;;;;;;;11.33;10.67;;;;;;;;5106059;27;52088;-58
2022/04/15 01:04:43;;;;;;;;;14.00;14.00;;;;;;;;5105736;27;53072;-52
2022/04/15 01:07:10;;;;;;;;;13.50;12.00;;;;;;;;5103735;27;52179;-53
2022/04/15 01:09:42;;;;;;;;;14.33;13.67;;;;;;;;5106334;27;51159;-48
2022/04/15 01:12:09;;;;;;;;;14.00;13.00;;;;;;;;5105244;27;51297;-48
2022/04/15 01:14:35;;;;;;;;;13.00;11.67;;;;;;;;5096399;27;52032;-52
2022/04/15 01:17:01;;;;;;;;;11.67;11.67;;;;;;;;5100336;27;51885;-53
2022/04/15 01:19:26;;;;;;;;;12.67;11.00;;;;;;;;5112703;27;51766;-51
2022/04/15 01:21:54;;;;;;;;;11.33;11.33;;;;;;;;5105352;27;51229;-53
2022/04/15 01:24:19;;;;;;;;;13.00;12.00;;;;;;;;5119600;27;51054;-50
2022/04/15 01:26:45;;;;;;;;;12.00;12.00;;;;;;;;5110751;27;52913;-52
2022/04/15 01:29:10;;;;;;;;;11.67;11.67;;;;;;;;5110215;27;51098;-52
2022/04/15 01:31:35;;;;;;;;;12.00;12.00;;;;;;;;5103878;27;51142;-48
2022/04/15 01:34:01;;;;;;;;;15.75;13.00;;;;;;;;5106273;27;51798;-49
2022/04/15 01:36:26;;;;;;;;;15.75;15.50;;;;;;;;5093075;27;52807;-49
2022/04/15 01:38:53;;;;;;;;;14.33;13.00;;;;;;;;5110495;27;51448;-47
2022/04/15 01:41:18;;;;;;;;;15.50;14.75;;;;;;;;5108490;27;51009;-50
2022/04/15 01:43:43;;;;;;;;;11.00;10.00;;;;;;;;5114611;27;51360;-50
2022/04/15 01:46:08;;;;;;;;;11.67;11.67;;;;;;;;5105374;27;51258;-51
2022/04/15 01:48:33;;;;;;;;;11.33;10.67;;;;;;;;5106077;27;51173;-49
2022/04/15 01:50:59;;;;;;;;;11.00;10.00;;;;;;;;5113228;27;51453;-54
2022/04/15 01:53:24;;;;;;;;;13.00;11.00;;;;;;;;5089976;27;51211;-46
2022/04/15 01:55:49;;;;;;;;;10.00;10.00;;;;;;;;5108147;27;52260;-49
2022/04/15 01:58:14;;;;;;;;;11.00;11.00;;;;;;;;5113522;27;51087;-48
2022/04/15 02:00:39;;;;;;;;;14.50;12.75;;;;;;;;5112411;27;51190;-50
2022/04/15 02:03:05;;;;;;;;;12.00;12.00;;;;;;;;5115388;27;51179;-53
2022/04/15 02:05:30;;;;;;;;;13.67;13.67;;;;;;;;5110258;27;51485;-48
2022/04/15 02:07:55;;;;;;;;;12.00;11.25;;;;;;;;5110073;27;51127;-51
2022/04/15 02:10:21;;;;;;;;;15.75;13.75;;;;;;;;5098651;27;51260;-53
2022/04/15 02:12:46;;;;;;;;;12.00;11.00;;;;;;;;5116917;27;51231;-52
2022/04/15 02:15:11;;;;;;;;;9.67;9.00;;;;;;;;5120961;27;50965;-50
2022/04/15 02:17:36;;;;;;;;;11.33;10.33;;;;;;;;5100592;27;50955;-50
2022/04/15 02:20:02;;;;;;;;;14.50;13.50;;;;;;;;5091015;27;52844;-52
2022/04/15 02:22:28;;;;;;;;;12.00;11.00;;;;;;;;5088462;27;51289;-53
2022/04/15 02:24:53;;;;;;;;;12.00;11.00;;;;;;;;5116157;27;52318;-53
2022/04/15 02:27:18;;;;;;;;;11.33;10.33;;;;;;;;5114614;27;51053;-50
2022/04/15 02:29:44;;;;;;;;;11.00;10.67;;;;;;;;5117874;27;51671;-53
2022/04/15 02:32:09;;;;;;;;;12.00;11.67;;;;;;;;5106689;27;51405;-52
2022/04/15 02:34:34;;;;;;;;;14.33;13.00;;;;;;;;5114271;27;51831;-52
2022/04/15 02:36:59;;;;;;;;;11.33;11.00;;;;;;;;5117116;27;51125;-53
2022/04/15 02:39:24;;;;;;;;;13.00;12.00;;;;;;;;5107730;27;52001;-52
2022/04/15 02:41:51;;;;;;;;;12.75;11.75;;;;;;;;5105590;27;51178;-54
2022/04/15 02:44:17;;;;;;;;;13.33;13.33;;;;;;;;5114588;27;52088;-50
2022/04/15 02:46:42;;;;;;;;;12.33;12.33;;;;;;;;5096915;27;51146;-50
2022/04/15 02:49:08;;;;;;;;;14.00;12.67;;;;;;;;5106678;27;51281;-49
2022/04/15 02:51:33;;;;;;;;;12.00;11.00;;;;;;;;5114344;27;51281;-49
2022/04/15 02:53:59;;;;;;;;;10.67;10.67;;;;;;;;5104608;27;51124;-52
2022/04/15 02:56:24;;;;;;;;;10.33;10.00;;;;;;;;5109854;27;52512;-50
2022/04/15 02:58:49;;;;;;;;;14.00;12.00;;;;;;;;5109068;27;51469;-49
2022/04/15 03:01:14;;;;;;;;;10.33;10.33;;;;;;;;5107018;27;51699;-54
2022/04/15 03:03:39;;;;;;;;;11.50;10.75;;;;;;;;5103211;27;51803;-52
2022/04/15 03:06:05;;;;;;;;;11.67;11.67;;;;;;;;5100735;27;50886;-53
2022/04/15 03:08:30;;;;;;;;;11.00;11.00;;;;;;;;5107257;27;51004;-54
2022/04/15 03:10:57;;;;;;;;;10.33;10.33;;;;;;;;5121878;27;51141;-52
2022/04/15 03:13:22;;;;;;;;;12.67;11.67;;;;;;;;5122658;27;52328;-53
2022/04/15 03:15:47;;;;;;;;;13.00;12.25;;;;;;;;5111718;27;51415;-55
2022/04/15 03:18:13;;;;;;;;;11.00;10.75;;;;;;;;5109385;27;51095;-54
2022/04/15 03:20:39;;;;;;;;;10.67;10.67;;;;;;;;5116590;27;51193;-53
2022/04/15 03:23:05;;;;;;;;;14.00;13.00;;;;;;;;5121426;27;50950;-53
2022/04/15 03:25:30;;;;;;;;;13.00;12.67;;;;;;;;5108904;27;51189;-52
2022/04/15 03:27:55;;;;;;;;;11.00;10.33;;;;;;;;5111535;27;51245;-52
2022/04/15 03:30:20;;;;;;;;;12.00;10.00;;;;;;;;5116246;27;51083;-51
2022/04/15 03:32:50;;;;;;;;;9.00;9.00;;;;;;;;5103014;27;51509;-51
2022/04/15 03:35:16;;;;;;;;;10.67;10.00;;;;;;;;5114067;27;51225;-49
2022/04/15 03:37:42;;;;;;;;;12.00;11.33;;;;;;;;5105264;27;51113;-50
2022/04/15 03:40:07;;;;;;;;;12.50;12.25;;;;;;;;5111059;27;51038;-50
2022/04/15 03:42:42;;;;;;;;;15.75;14.25;;;;;;;;5121174;27;51650;-54
2022/04/15 03:45:07;;;;;;;;;13.75;12.75;;;;;;;;5118605;27;51057;-54
2022/04/15 03:47:32;;;;;;;;;12.00;11.00;;;;;;;;5115476;27;51017;-53
2022/04/15 03:49:57;;;;;;;;;12.00;12.00;;;;;;;;5093755;27;51301;-51
2022/04/15 03:52:23;;;;;;;;;9.67;9.67;;;;;;;;5098385;27;51837;-54
2022/04/15 03:54:48;;;;;;;;;12.75;11.00;;;;;;;;5103814;27;51121;-52
2022/04/15 03:57:13;;;;;;;;;13.00;11.67;;;;;;;;5110161;27;52283;-54
2022/04/15 03:59:38;;;;;;;;;12.00;11.00;;;;;;;;5109117;27;51336;-53
2022/04/15 04:02:03;;;;;;;;;11.00;10.75;;;;;;;;5113463;27;51046;-54
2022/04/15 04:04:28;;;;;;;;;11.00;10.00;;;;;;;;5111745;27;51165;-53
2022/04/15 04:06:54;;;;;;;;;11.67;11.67;;;;;;;;5120479;27;51242;-50
2022/04/15 04:09:19;;;;;;;;;11.50;10.25;;;;;;;;5112046;27;50900;-51
2022/04/15 04:11:44;;;;;;;;;13.00;12.00;;;;;;;;5101693;27;51243;-52
2022/04/15 04:14:10;;;;;;;;;12.00;10.67;;;;;;;;5107358;27;51083;-53
2022/04/15 04:16:35;;;;;;;;;12.00;10.33;;;;;;;;5102928;27;51185;-51
2022/04/15 04:19:01;;;;;;;;;11.00;10.00;;;;;;;;5111891;27;51116;-50
2022/04/15 04:21:26;;;;;;;;;13.00;11.25;;;;;;;;5111880;27;51856;-50
2022/04/15 04:23:52;;;;;;;;;12.25;11.50;;;;;;;;5110973;27;51152;-50
2022/04/15 04:26:17;;;;;;;;;14.00;13.00;;;;;;;;5106752;27;51131;-50
2022/04/15 04:28:42;;;;;;;;;13.50;12.75;;;;;;;;5107220;27;51261;-49
2022/04/15 04:31:08;;;;;;;;;13.25;12.75;;;;;;;;5106997;27;52512;-50
2022/04/15 04:33:33;;;;;;;;;17.00;13.00;;;;;;;;5109519;27;51624;-51
2022/04/15 04:35:58;;;;;;;;;14.00;12.75;;;;;;;;5111487;27;51039;-49
2022/04/15 04:38:23;;;;;;;;;16.00;14.50;;;;;;;;5110544;27;51228;-53
2022/04/15 04:40:48;;;;;;;;;21.00;15.00;;;;;;;;5105274;27;52184;-49
2022/04/15 04:43:14;;;;;;;;;15.00;14.25;;;;;;;;5113884;27;51090;-48
2022/04/15 04:45:39;;;;;;;;;13.25;12.75;;;;;;;;5110310;27;51141;-53
2022/04/15 04:48:05;;;;;;;;;12.75;12.25;;;;;;;;5100899;27;50924;-48
2022/04/15 04:50:31;;;;;;;;;14.25;13.50;;;;;;;;5113860;27;51028;-50
2022/04/15 04:52:56;;;;;;;;;13.75;13.75;;;;;;;;5109369;27;51188;-52
2022/04/15 04:55:22;;;;;;;;;13.00;12.25;;;;;;;;5121762;27;50960;-51
2022/04/15 04:57:47;;;;;;;;;14.25;13.25;;;;;;;;5121601;27;51227;-53
2022/04/15 05:00:13;;;;;;;;;16.75;15.00;;;;;;;;5102519;27;51381;-53
2022/04/15 05:02:39;;;;;;;;;14.75;14.50;;;;;;;;5110880;27;51076;-52
2022/04/15 05:05:04;;;;;;;;;17.75;15.00;;;;;;;;5114138;27;51098;-52
2022/04/15 05:07:30;;;;;;;;;20.25;20.25;;;;;;;;5119473;27;51365;-51
2022/04/15 05:09:55;;;;;;;;;20.75;20.00;;;;;;;;5118130;27;51880;-53
2022/04/15 05:12:20;;;;;;;;;18.75;16.00;;;;;;;;5124150;27;51176;-53
2022/04/15 05:14:46;;;;;;;;;18.75;18.75;;;;;;;;5108568;27;51212;-53
2022/04/15 05:17:11;;;;;;;;;15.50;13.00;;;;;;;;5094877;27;51439;-53
2022/04/15 05:19:36;;;;;;;;;14.50;14.50;;;;;;;;5100248;27;51319;-52
2022/04/15 05:22:01;;;;;;;;;13.75;13.75;;;;;;;;5095828;27;51032;-53
2022/04/15 05:24:27;;;;;;;;;16.00;14.25;;;;;;;;5078700;27;51533;-52
2022/04/15 05:26:52;;;;;;;;;15.75;15.75;;;;;;;;5113735;27;51351;-52
2022/04/15 05:29:17;;;;;;;;;18.00;15.75;;;;;;;;5116077;27;51657;-51
2022/04/15 05:31:42;;;;;;;;;16.00;16.00;;;;;;;;5112806;27;51145;-48
2022/04/15 05:34:08;;;;;;;;;13.00;12.00;;;;;;;;5110902;27;51069;-50
2022/04/15 05:36:33;;;;;;;;;18.75;17.75;;;;;;;;5116575;27;51272;-52
2022/04/15 05:38:58;;;;;;;;;20.50;19.75;;;;;;;;5093446;27;53265;-53
2022/04/15 05:41:24;;;;;;;;;16.25;16.00;;;;;;;;5116117;27;50855;-50
2022/04/15 05:43:49;;;;;;;;;18.50;18.00;;;;;;;;5118790;27;51128;-51
2022/04/15 05:46:15;;;;;;;;;16.50;15.00;;;;;;;;5123581;27;51240;-49
2022/04/15 05:48:40;;;;;;;;;16.25;16.25;;;;;;;;5109459;27;54104;-48
2022/04/15 05:51:05;;;;;;;;;14.00;13.50;;;;;;;;5114247;27;51468;-52
2022/04/15 05:53:31;;;;;;;;;14.25;13.50;;;;;;;;5106538;27;51102;-52
2022/04/15 05:55:57;;;;;;;;;14.00;14.00;;;;;;;;5115271;27;51228;-51
2022/04/15 05:58:22;;;;;;;;;17.50;15.00;;;;;;;;5114896;27;52408;-53
2022/04/15 06:00:47;;;;;;;;;14.75;14.25;;;;;;;;5115061;27;50987;-53
2022/04/15 06:03:13;;;;;;;;;15.25;15.00;;;;;;;;5094426;27;51111;-53
2022/04/15 06:05:38;;;;;;;;;15.25;14.50;;;;;;;;5117695;27;51114;-53
2022/04/15 06:08:03;;;;;;;;;16.00;14.50;;;;;;;;5091688;27;52060;-53
2022/04/15 06:10:30;;;;;;;;;13.00;13.00;;;;;;;;5110342;27;51116;-52
2022/04/15 06:13:00;;;;;;;;;9.67;9.67;;;;;;;;5108210;27;51095;-51
2022/04/15 06:15:28;;;;;;;;;12.33;12.00;;;;;;;;5096799;27;51223;-51
2022/04/15 06:17:54;;;;;;;;;12.00;12.00;;;;;;;;5118992;27;52946;-55
2022/04/15 06:20:19;;;;;;;;;12.33;12.00;;;;;;;;5095496;27;51191;-52
2022/04/15 06:22:44;;;;;;;;;12.67;12.00;;;;;;;;5108598;27;51175;-52
2022/04/15 06:25:10;;;;;;;;;9.33;8.67;;;;;;;;5112165;27;51270;-49
2022/04/15 06:27:35;;;;;;;;;8.00;8.00;;;;;;;;5105774;27;52175;-54
2022/04/15 06:30:00;;;;;;;;;10.00;8.67;;;;;;;;5113203;27;51363;-53
2022/04/15 06:32:26;;;;;;;;;11.33;11.33;;;;;;;;5095164;27;51376;-51
2022/04/15 06:34:51;;;;;;;;;7.67;7.33;;;;;;;;5088377;27;51079;-55
2022/04/15 06:37:16;;;;;;;;;10.00;9.00;;;;;;;;5107901;27;52209;-54
2022/04/15 06:39:42;;;;;;;;;10.00;9.00;;;;;;;;5113671;27;51192;-54
2022/04/15 06:42:07;;;;;;;;;11.33;10.33;;;;;;;;5102175;27;51060;-53
2022/04/15 06:44:35;;;;;;;;;11.00;10.00;;;;;;;;5107008;27;50884;-55
2022/04/15 06:47:00;;;;;;;;;27.25;26.50;;;;;;;;5085915;27;54139;-53
2022/04/15 06:49:26;;;;;;;;;12.00;12.00;;;;;;;;5099545;27;51296;-53
2022/04/15 06:51:51;;;;;;;;;10.67;10.00;;;;;;;;5100147;27;52379;-51
2022/04/15 06:54:16;;;;;;;;;11.33;11.00;;;;;;;;5110200;27;51079;-52
2022/04/15 06:56:41;;;;;;;;;13.33;9.67;;;;;;;;5103326;27;52328;-54
2022/04/15 06:59:07;;;;;;;;;13.00;13.00;;;;;;;;5106033;27;51993;-52
2022/04/15 07:01:35;;;;;;;;;13.00;12.00;;;;;;;;5103687;27;51307;-53
2022/04/15 07:04:02;;;;;;;;;12.33;12.33;;;;;;;;5106255;27;51124;-54
2022/04/15 07:06:27;;;;;;;;;13.67;13.33;;;;;;;;5105006;27;51958;-50
2022/04/15 07:08:53;;;;;;;;;18.00;17.00;;;;;;;;5105375;27;51151;-53
2022/04/15 07:11:18;;;;;;;;;16.67;15.67;;;;;;;;5106141;27;51105;-51
2022/04/15 07:13:43;;;;;;;;;19.33;19.00;;;;;;;;5102291;27;51087;-50
2022/04/15 07:16:08;;;;;;;;;17.33;16.00;;;;;;;;5104114;27;51886;-52
2022/04/15 07:18:33;;;;;;;;;14.00;14.00;;;;;;;;5090009;27;51261;-52
2022/04/15 07:20:59;;;;;;;;;18.00;17.33;;;;;;;;5108567;27;51062;-52
2022/04/15 07:23:24;;;;;;;;;20.00;17.67;;;;;;;;5105495;27;51245;-53
2022/04/15 07:25:49;;;;;;;;;16.00;15.33;;;;;;;;5105639;27;51916;-53
2022/04/15 07:28:14;;;;;;;;;15.33;15.00;;;;;;;;5106375;27;51908;-51
2022/04/15 07:30:39;;;;;;;;;15.00;14.67;;;;;;;;5106671;27;51182;-51
2022/04/15 07:33:05;;;;;;;;;15.33;15.00;;;;;;;;5104420;27;51115;-51
2022/04/15 07:35:30;;;;;;;;;13.00;13.00;;;;;;;;5103685;27;52611;-49
2022/04/15 07:37:55;;;;;;;;;9.33;8.33;;;;;;;;5117806;27;51123;-50
2022/04/15 07:40:27;;;;;;;;;11.33;11.00;;;;;;;;5104795;27;51188;-53
2022/04/15 07:42:52;;;;;;;;;29.50;27.75;;;;;;;;5106195;27;51527;-52
2022/04/15 07:45:17;;;;;;;;;13.33;13.33;;;;;;;;5104895;27;51268;-53
2022/04/15 07:47:43;;;;;;;;;14.67;13.33;;;;;;;;5119057;27;51112;-53
2022/04/15 07:50:08;;;;;;;;;11.00;11.00;;;;;;;;5117668;27;51108;-53
2022/04/15 07:52:35;;;;;;;;;10.67;10.67;;;;;;;;5118234;27;51353;-50
2022/04/15 07:55:00;;;;;;;;;11.67;11.00;;;;;;;;5112692;27;51831;-51
2022/04/15 07:57:27;;;;;;;;;13.00;12.67;;;;;;;;5120161;27;50885;-53
2022/04/15 07:59:53;;;;;;;;;13.67;13.67;;;;;;;;5101370;27;50932;-52
2022/04/15 08:02:18;;;;;;;;;10.00;10.00;;;;;;;;5114673;27;51140;-54
2022/04/15 08:04:43;;;;;;;;;12.67;12.00;;;;;;;;5121756;27;51287;-49
2022/04/15 08:07:08;;;;;;;;;12.00;12.00;;;;;;;;5118837;27;51227;-54
2022/04/15 08:09:34;;;;;;;;;11.67;11.33;;;;;;;;5132460;27;51235;-51
2022/04/15 08:11:59;;;;;;;;;12.00;12.00;;;;;;;;5113960;27;51297;-50
2022/04/15 08:14:24;;;;;;;;;12.00;12.00;;;;;;;;5113800;27;52791;-51
2022/04/15 08:16:50;;;;;;;;;10.00;9.33;;;;;;;;5112095;27;51050;-52
2022/04/15 08:19:17;;;;;;;;;9.00;8.33;;;;;;;;5117256;27;51300;-50
2022/04/15 08:21:42;;;;;;;;;9.33;8.33;;;;;;;;5099393;27;51070;-51
2022/04/15 08:24:07;;;;;;;;;12.67;10.00;;;;;;;;5108367;27;51758;-50
2022/04/15 08:26:32;;;;;;;;;12.00;11.00;;;;;;;;5114284;27;50987;-52
2022/04/15 08:28:58;;;;;;;;;12.00;11.67;;;;;;;;5112756;27;51223;-51
2022/04/15 08:31:23;;;;;;;;;12.00;12.00;;;;;;;;5105466;27;51168;-54
2022/04/15 08:33:48;;;;;;;;;11.33;10.67;;;;;;;;5111332;27;51030;-53
2022/04/15 08:36:13;;;;;;;;;7.67;7.67;;;;;;;;5108570;27;51277;-53
2022/04/15 08:38:39;;;;;;;;;8.67;8.33;;;;;;;;5110498;27;51176;-51
2022/04/15 08:41:06;;;;;;;;;6.00;6.00;;;;;;;;5100140;27;51128;-53
2022/04/15 08:43:31;;;;;;;;;6.33;6.33;;;;;;;;5101333;27;51128;-53
2022/04/15 08:45:56;;;;;;;;;9.00;7.67;;;;;;;;5107938;27;50975;-53
2022/04/15 08:48:23;;;;;;;;;6.00;5.00;;;;;;;;5109228;27;51010;-52
2022/04/15 08:50:50;;;;;;;;;8.00;7.00;;;;;;;;5111386;27;51220;-53
2022/04/15 08:53:16;;;;;;;;;5.67;5.67;;;;;;;;5093556;27;51187;-52
2022/04/15 08:55:41;;;;;;;;;7.00;7.00;;;;;;;;5093919;27;51128;-55
2022/04/15 08:58:06;;;;;;;;;5.00;5.00;;;;;;;;5110072;27;51062;-53
2022/04/15 09:00:32;;;;;;;;;8.00;8.00;;;;;;;;5112302;27;51040;-53
2022/04/15 09:02:57;;;;;;;;;7.67;6.67;;;;;;;;5111923;27;51716;-53
2022/04/15 09:05:23;;;;;;;;;6.00;6.00;;;;;;;;5111108;27;51119;-53
2022/04/15 09:07:48;;;;;;;;;6.33;5.67;;;;;;;;5113860;27;51117;-52
2022/04/15 09:10:15;;;;;;;;;6.33;6.00;;;;;;;;5114504;27;51212;-51
2022/04/15 09:12:41;;;;;;;;;6.00;6.00;;;;;;;;5115277;27;52005;-54
2022/04/15 09:15:06;;;;;;;;;5.00;5.00;;;;;;;;5115635;27;51026;-54
2022/04/15 09:17:32;;;;;;;;;5.00;5.00;;;;;;;;5095876;27;51018;-54
2022/04/15 09:19:58;;;;;;;;;5.00;4.00;;;;;;;;5115583;27;51293;-55
2022/04/15 09:22:24;;;;;;;;;4.67;4.00;;;;;;;;5111671;27;52987;-56
2022/04/15 09:24:50;;;;;;;;;7.33;7.00;;;;;;;;5114381;27;51052;-54
2022/04/15 09:27:16;;;;;;;;;4.33;4.33;;;;;;;;5103341;27;51107;-52
2022/04/15 09:29:41;;;;;;;;;4.67;4.67;;;;;;;;5097365;27;51285;-54
2022/04/15 09:32:14;;;;;;;;;6.33;5.67;;;;;;;;5115091;27;52140;-54
2022/04/15 09:34:55;;;;;;;;;3.67;3.67;;;;;;;;5114159;27;51050;-54
2022/04/15 09:37:21;;;;;;;;;4.33;4.00;;;;;;;;5096224;27;51105;-54
2022/04/15 09:40:22;;;;;;;;;5.00;5.00;;;;;;;;5096727;27;51007;-55
2022/04/15 09:42:48;;;;;;;;;4.67;4.00;;;;;;;;5050574;27;51259;-55
2022/04/15 09:45:14;;;;;;;;;5.00;5.00;;;;;;;;5113399;27;50935;-56
2022/04/15 09:47:40;;;;;;;;;5.00;4.00;;;;;;;;5115420;27;51036;-54
2022/04/15 09:50:07;;;;;;;;;5.00;5.00;;;;;;;;5101871;27;51391;-53
2022/04/15 09:52:32;;;;;;;;;5.67;4.67;;;;;;;;5108120;27;51884;-53
2022/04/15 09:55:00;;;;;;;;;3.00;3.00;;;;;;;;5106395;27;51133;-56
2022/04/15 09:57:29;;;;;;;;;6.00;6.00;;;;;;;;5108479;27;51269;-53
2022/04/15 09:59:55;;;;;;;;;5.00;4.00;;;;;;;;5108555;27;51325;-54
2022/04/15 10:02:21;;;;;;;;;6.00;5.67;;;;;;;;5114614;27;52878;-55
2022/04/15 10:04:46;;;;;;;;;4.67;4.67;;;;;;;;5114903;27;51137;-55
2022/04/15 10:07:12;;;;;;;;;6.00;6.00;;;;;;;;5109023;27;51095;-54
2022/04/15 10:09:38;;;;;;;;;4.00;4.00;;;;;;;;5114710;27;50908;-54
2022/04/15 10:12:04;;;;;;;;;3.00;3.00;;;;;;;;5095155;27;52171;-54
2022/04/15 10:14:30;;;;;;;;;4.33;3.67;;;;;;;;5114574;27;51087;-55
2022/04/15 10:16:57;;;;;;;;;5.00;5.00;;;;;;;;5099908;27;51243;-54
2022/04/15 10:19:23;;;;;;;;;4.00;4.00;;;;;;;;5114699;27;51249;-55
2022/04/15 10:21:50;;;;;;;;;4.00;4.00;;;;;;;;5114029;27;52046;-52
2022/04/15 10:24:16;;;;;;;;;4.33;4.00;;;;;;;;5095737;27;51030;-56
2022/04/15 10:26:44;;;;;;;;;3.33;3.00;;;;;;;;5112098;27;50944;-55
2022/04/15 10:29:09;;;;;;;;;7.00;7.00;;;;;;;;5096663;27;51238;-54
2022/04/15 10:31:45;;;;;;;;;4.00;4.00;;;;;;;;5113974;27;51632;-56
2022/04/15 10:34:15;;;;;;;;;6.00;5.00;;;;;;;;5100544;27;50925;-54
2022/04/15 10:36:47;;;;;;;;;5.33;5.00;;;;;;;;5114539;27;51000;-55
2022/04/15 10:39:14;;;;;;;;;2.00;2.00;;;;;;;;5114369;27;51318;-51
2022/04/15 10:41:42;;;;;;;;;3.00;3.00;;;;;;;;5114121;27;51969;-56
2022/04/15 10:44:23;;;;;;;;;4.33;4.33;;;;;;;;5114659;27;50962;-50
2022/04/15 10:46:48;;;;;;;;;3.33;3.00;;;;;;;;5111821;27;51040;-55
2022/04/15 10:49:26;;;;;;;;;4.00;4.00;;;;;;;;5112815;27;51157;-56
2022/04/15 10:51:52;;;;;;;;;4.33;4.33;;;;;;;;5103997;27;52249;-53
2022/04/15 10:54:31;;;;;;;;;4.00;3.00;;;;;;;;5114046;27;51043;-55
2022/04/15 10:56:59;;;;;;;;;3.67;3.67;;;;;;;;5112754;27;50960;-53
2022/04/15 11:02:16;;;;;;;;;1.33;1.33;;;;;;;;5108721;27;51516;-54
2022/04/15 11:04:47;;;;;;;;;3.00;3.00;;;;;;;;5110291;27;51018;-53
2022/04/15 11:07:28;;;;;;;;;3.00;3.00;;;;;;;;5110994;27;51115;-55
2022/04/15 11:09:53;;;;;;;;;3.00;3.00;;;;;;;;5096011;27;51150;-54
2022/04/15 11:12:29;;;;;;;;;2.33;2.33;;;;;;;;5100154;27;51151;-50
2022/04/15 11:14:54;;;;;;;;;3.67;3.67;;;;;;;;5106892;27;51144;-52
2022/04/15 11:17:34;;;;;;;;;4.00;4.00;;;;;;;;5103060;27;50911;-54
2022/04/15 11:20:00;;;;;;;;;5.33;5.33;;;;;;;;5105329;27;51470;-52
2022/04/15 11:22:25;;;;;;;;;4.00;4.00;;;;;;;;5113679;27;51030;-53
2022/04/15 11:24:51;;;;;;;;;0.00;0.00;;;;;;;;5094863;27;51064;-51
2022/04/15 11:27:17;;;;;;;;;3.33;3.33;;;;;;;;5112567;27;50923;-53
2022/04/15 11:29:42;;;;;;;;;3.67;3.67;;;;;;;;5110073;27;51310;-54
2022/04/15 11:32:08;;;;;;;;;4.00;4.00;;;;;;;;5112677;27;51919;-55
2022/04/15 11:34:34;;;;;;;;;4.00;4.00;;;;;;;;5111876;27;51034;-55
2022/04/15 11:37:03;;;;;;;;;5.67;4.00;;;;;;;;5113895;27;50847;-55
2022/04/15 11:39:29;;;;;;;;;5.00;5.00;;;;;;;;5099886;27;50979;-53
2022/04/15 11:41:57;;;;;;;;;5.00;4.33;;;;;;;;5113047;27;52580;-52
2022/04/15 11:44:27;;;;;;;;;3.00;3.00;;;;;;;;5113036;27;50992;-54
2022/04/15 11:46:53;;;;;;;;;6.67;6.00;;;;;;;;5113073;27;51250;-54
2022/04/15 11:49:19;;;;;;;;;4.00;3.00;;;;;;;;5090262;27;51230;-54
2022/04/15 11:51:49;;;;;;;;;7.00;7.00;;;;;;;;5084615;27;52088;-50
2022/04/15 11:54:14;;;;;;;;;4.67;4.00;;;;;;;;5113021;27;50941;-57
2022/04/15 11:56:42;;;;;;;;;3.33;3.33;;;;;;;;5113073;27;50957;-51
2022/04/15 11:59:10;;;;;;;;;4.00;3.00;;;;;;;;5094813;27;51021;-50
2022/04/15 12:01:36;;;;;;;;;4.00;4.00;;;;;;;;5112065;27;51260;-54
2022/04/15 12:04:01;;;;;;;;;5.00;5.00;;;;;;;;5093823;27;51058;-53
2022/04/15 12:06:27;;;;;;;;;5.67;5.00;;;;;;;;5103526;27;51105;-51
2022/04/15 12:08:53;;;;;;;;;4.00;4.00;;;;;;;;5099820;27;50894;-51
2022/04/15 12:11:23;;;;;;;;;5.00;5.00;;;;;;;;5101549;27;51630;-52
2022/04/15 12:13:59;;;;;;;;;6.00;6.00;;;;;;;;5112911;27;51065;-50
2022/04/15 12:16:25;;;;;;;;;7.00;6.33;;;;;;;;5112665;27;51325;-54
2022/04/15 12:18:52;;;;;;;;;4.00;4.00;;;;;;;;5111815;27;51040;-52
2022/04/15 12:21:17;;;;;;;;;5.33;5.33;;;;;;;;5111182;27;50930;-51
2022/04/15 12:24:00;;;;;;;;;5.00;4.00;;;;;;;;5112788;27;50937;-54
2022/04/15 12:26:26;;;;;;;;;24.00;22.00;;;;;;;;5113067;27;51129;-54
2022/04/15 12:31:35;;;;;;;;;4.67;4.67;;;;;;;;5103711;27;51509;-54
2022/04/15 12:34:01;;;;;;;;;4.67;4.67;;;;;;;;5094089;27;51079;-52
2022/04/15 12:36:42;;;;;;;;;6.00;6.00;;;;;;;;5112802;27;50940;-52
2022/04/15 12:39:08;;;;;;;;;4.33;4.00;;;;;;;;5113825;27;51093;-54
2022/04/15 12:41:37;;;;;;;;;6.00;6.00;;;;;;;;5115674;27;51008;-53
2022/04/15 12:44:12;;;;;;;;;6.67;6.67;;;;;;;;5115756;27;50925;-53
2022/04/15 12:46:38;;;;;;;;;6.00;6.00;;;;;;;;5115052;27;50928;-53
2022/04/15 12:49:03;;;;;;;;;7.00;7.00;;;;;;;;5114590;27;50949;-51
2022/04/15 12:51:38;;;;;;;;;4.33;4.33;;;;;;;;5115078;27;51045;-52
2022/04/15 12:54:06;;;;;;;;;8.00;7.00;;;;;;;;5115628;27;50830;-51
2022/04/15 12:56:32;;;;;;;;;6.67;6.67;;;;;;;;5115166;27;51226;-54
2022/04/15 12:58:57;;;;;;;;;6.67;6.67;;;;;;;;5114937;27;51276;-53
2022/04/15 13:01:23;;;;;;;;;5.00;5.00;;;;;;;;5109620;27;52184;-54
2022/04/15 13:03:52;;;;;;;;;5.33;5.33;;;;;;;;5115179;27;51079;-53
2022/04/15 13:06:18;;;;;;;;;3.00;3.00;;;;;;;;5114194;27;51072;-54
2022/04/15 13:08:43;;;;;;;;;5.00;5.00;;;;;;;;5110113;27;51120;-51
2022/04/15 13:11:09;;;;;;;;;8.00;8.00;;;;;;;;5114779;27;51081;-52
2022/04/15 13:13:35;;;;;;;;;6.67;6.00;;;;;;;;5096399;27;50951;-53
2022/04/15 13:16:00;;;;;;;;;6.33;5.67;;;;;;;;5114830;27;50982;-53
2022/04/15 13:18:25;;;;;;;;;6.33;6.00;;;;;;;;5115504;27;51308;-52
2022/04/15 13:20:50;;;;;;;;;5.00;5.00;;;;;;;;5114935;27;51042;-54
2022/04/15 13:23:16;;;;;;;;;4.00;4.00;;;;;;;;5107943;27;51035;-50
2022/04/15 13:25:42;;;;;;;;;6.00;6.00;;;;;;;;5108949;27;50933;-52
2022/04/15 13:28:07;;;;;;;;;7.00;7.00;;;;;;;;5115567;27;50864;-54
2022/04/15 13:30:32;;;;;;;;;6.00;6.00;;;;;;;;5114527;27;51765;-50
2022/04/15 13:33:02;;;;;;;;;9.00;7.00;;;;;;;;5115212;27;50934;-50
2022/04/15 13:35:31;;;;;;;;;4.67;4.67;;;;;;;;5114981;27;50959;-54
2022/04/15 13:37:57;;;;;;;;;7.33;6.67;;;;;;;;5115284;27;51063;-54
2022/04/15 13:40:22;;;;;;;;;9.00;8.00;;;;;;;;5101379;27;51806;-55
2022/04/15 13:42:47;;;;;;;;;8.00;7.00;;;;;;;;5115268;27;51094;-53
2022/04/15 13:45:13;;;;;;;;;5.67;5.67;;;;;;;;5114797;27;50986;-54
2022/04/15 13:47:38;;;;;;;;;10.33;9.00;;;;;;;;5115001;27;51711;-54
2022/04/15 13:50:04;;;;;;;;;6.67;6.67;;;;;;;;5113418;27;50967;-52
2022/04/15 13:57:57;;;;;;;;;11.33;8.33;;;;;;;;5113799;27;51251;-55
2022/04/15 14:00:22;;;;;;;;;4.67;4.67;;;;;;;;5114091;27;52053;-53
2022/04/15 14:02:47;;;;;;;;;8.00;8.00;;;;;;;;5114055;27;50902;-51
2022/04/15 14:05:13;;;;;;;;;7.00;6.00;;;;;;;;5112463;27;51188;-53
2022/04/15 14:07:38;;;;;;;;;7.67;7.67;;;;;;;;5089923;27;51374;-52
2022/04/15 14:10:04;;;;;;;;;9.33;8.33;;;;;;;;5097850;27;51252;-54
2022/04/15 14:12:31;;;;;;;;;11.33;10.33;;;;;;;;5113631;27;51042;-54
2022/04/15 14:14:56;;;;;;;;;10.00;10.00;;;;;;;;5101129;27;51005;-52
2022/04/15 14:17:21;;;;;;;;;12.33;12.33;;;;;;;;5114471;27;51006;-54
2022/04/15 14:19:47;;;;;;;;;13.00;12.00;;;;;;;;5114325;27;52921;-52
2022/04/15 14:22:13;;;;;;;;;15.00;13.00;;;;;;;;5113531;27;51010;-53
2022/04/15 14:24:38;;;;;;;;;16.00;15.00;;;;;;;;5100945;27;51230;-52
2022/04/15 14:27:04;;;;;;;;;10.33;10.00;;;;;;;;5114281;27;51217;-56
2022/04/15 14:29:29;;;;;;;;;11.00;11.00;;;;;;;;5113759;27;52062;-54
2022/04/15 14:31:59;;;;;;;;;12.00;11.33;;;;;;;;5106197;27;51048;-51
2022/04/15 14:34:26;;;;;;;;;12.00;11.33;;;;;;;;5077660;27;51326;-50